sensor_id;sensor_type;location;lat;lon;timestamp;pressure;altitude;pressure_sealevel;temperature;humidity
31771;BME280;18343;50.152;8.182;2024-01-16T00:00:52;96653.66;;;-0.27;100.00
31771;BME280;18343;50.152;8.182;2024-01-16T00:03:39;96651.94;;;-0.19;100.00
31771;BME280;18343;50.152;8.182;2024-01-16T00:06:41;96650.63;;;-0.32;100.00
31771;BME280;18343;50.152;8.182;2024-01-16T00:09:34;96658.44;;;-0.41;100.00
31771;BME280;18343;50.152;8.182;2024-01-16T00:12:20;96667.63;;;-0.45;100.00
31771;BME280;18343;50.152;8.182;2024-01-16T00:15:06;96657.44;;;-0.30;100.00
31771;BME280;18343;50.152;8.182;2024-01-16T00:17:54;96662.16;;;-0.33;100.00
31771;BME280;18343;50.152;8.182;2024-01-16T00:20:43;96670.66;;;-0.40;100.00
31771;BME280;18343;50.152;8.182;2024-01-16T00:23:33;96667.59;;;-0.35;100.00
31771;BME280;18343;50.152;8.182;2024-01-16T00:26:22;96672.00;;;-0.26;100.00
31771;BME280;18343;50.152;8.182;2024-01-16T00:29:08;96681.59;;;-0.25;100.00
31771;BME280;18343;50.152;8.182;2024-01-16T00:31:58;96674.50;;;-0.24;100.00
31771;BME280;18343;50.152;8.182;2024-01-16T00:34:46;96679.56;;;-0.41;100.00
31771;BME280;18343;50.152;8.182;2024-01-16T00:37:36;96671.91;;;-0.34;100.00
31771;BME280;18343;50.152;8.182;2024-01-16T00:40:28;96673.44;;;-0.31;100.00
31771;BME280;18343;50.152;8.182;2024-01-16T00:43:13;96671.47;;;-0.29;100.00
31771;BME280;18343;50.152;8.182;2024-01-16T00:45:58;96672.25;;;-0.19;100.00
31771;BME280;18343;50.152;8.182;2024-01-16T00:48:44;96674.50;;;-0.24;100.00
31771;BME280;18343;50.152;8.182;2024-01-16T00:51:33;96672.97;;;-0.27;100.00
31771;BME280;18343;50.152;8.182;2024-01-16T00:54:45;96673.13;;;-0.28;100.00
31771;BME280;18343;50.152;8.182;2024-01-16T00:57:33;96672.81;;;-0.16;100.00
31771;BME280;18343;50.152;8.182;2024-01-16T01:00:19;96680.09;;;-0.27;100.00
31771;BME280;18343;50.152;8.182;2024-01-16T01:03:07;96674.69;;;-0.36;100.00
31771;BME280;18343;50.152;8.182;2024-01-16T01:05:55;96676.63;;;-0.28;100.00
31771;BME280;18343;50.152;8.182;2024-01-16T01:08:40;96677.69;;;-0.21;100.00
31771;BME280;18343;50.152;8.182;2024-01-16T01:11:53;96692.63;;;-0.39;100.00
31771;BME280;18343;50.152;8.182;2024-01-16T01:14:40;96685.06;;;-0.24;100.00
31771;BME280;18343;50.152;8.182;2024-01-16T01:17:34;96691.72;;;-0.20;100.00
31771;BME280;18343;50.152;8.182;2024-01-16T01:20:19;96691.00;;;-0.13;100.00
31771;BME280;18343;50.152;8.182;2024-01-16T01:23:06;96693.25;;;-0.18;100.00
31771;BME280;18343;50.152;8.182;2024-01-16T01:26:10;96695.88;;;-0.18;100.00
31771;BME280;18343;50.152;8.182;2024-01-16T01:29:04;96700.91;;;-0.24;100.00
31771;BME280;18343;50.152;8.182;2024-01-16T01:31:53;96710.50;;;-0.23;100.00
31771;BME280;18343;50.152;8.182;2024-01-16T01:34:37;96708.66;;;-0.13;100.00
31771;BME280;18343;50.152;8.182;2024-01-16T01:37:26;96712.91;;;-0.40;100.00
31771;BME280;18343;50.152;8.182;2024-01-16T01:40:14;96702.56;;;-0.14;100.00
31771;BME280;18343;50.152;8.182;2024-01-16T01:43:17;96712.22;;;-0.42;100.00
31771;BME280;18343;50.152;8.182;2024-01-16T01:46:18;96713.97;;;-0.23;100.00
31771;BME280;18343;50.152;8.182;2024-01-16T01:49:04;96704.63;;;-0.08;100.00
31771;BME280;18343;50.152;8.182;2024-01-16T01:51:50;96702.25;;;-0.01;100.00
31771;BME280;18343;50.152;8.182;2024-01-16T01:54:38;96710.47;;;-0.04;100.00
31771;BME280;18343;50.152;8.182;2024-01-16T01:57:25;96711.88;;;-0.10;100.00
31771;BME280;18343;50.152;8.182;2024-01-16T02:00:17;96713.69;;;-0.20;100.00
31771;BME280;18343;50.152;8.182;2024-01-16T02:03:05;96716.72;;;-0.05;100.00
31771;BME280;18343;50.152;8.182;2024-01-16T02:05:52;96713.25;;;-0.15;100.00
31771;BME280;18343;50.152;8.182;2024-01-16T02:08:37;96706.84;;;-0.03;100.00
31771;BME280;18343;50.152;8.182;2024-01-16T02:11:25;96718.75;;;0.01;100.00
31771;BME280;18343;50.152;8.182;2024-01-16T02:14:18;96724.50;;;-0.04;100.00
31771;BME280;18343;50.152;8.182;2024-01-16T02:17:04;96732.84;;;-0.08;100.00
31771;BME280;18343;50.152;8.182;2024-01-16T02:19:52;96723.41;;;-0.11;100.00
31771;BME280;18343;50.152;8.182;2024-01-16T02:22:40;96732.31;;;-0.21;100.00
31771;BME280;18343;50.152;8.182;2024-01-16T02:25:38;96730.75;;;-0.05;100.00
31771;BME280;18343;50.152;8.182;2024-01-16T02:28:23;96732.66;;;0.03;100.00
31771;BME280;18343;50.152;8.182;2024-01-16T02:31:08;96731.81;;;0.12;100.00
31771;BME280;18343;50.152;8.182;2024-01-16T02:34:05;96721.66;;;0.08;100.00
31771;BME280;18343;50.152;8.182;2024-01-16T02:36:52;96723.03;;;0.12;100.00
31771;BME280;18343;50.152;8.182;2024-01-16T02:39:37;96721.75;;;-0.12;100.00
31771;BME280;18343;50.152;8.182;2024-01-16T02:42:34;96718.63;;;0.03;100.00
31771;BME280;18343;50.152;8.182;2024-01-16T02:45:22;96733.00;;;-0.10;100.00
31771;BME280;18343;50.152;8.182;2024-01-16T02:48:07;96726.03;;;-0.01;100.00
31771;BME280;18343;50.152;8.182;2024-01-16T02:50:53;96727.56;;;-0.08;100.00
31771;BME280;18343;50.152;8.182;2024-01-16T02:53:39;96717.50;;;0.05;100.00
31771;BME280;18343;50.152;8.182;2024-01-16T02:56:24;96724.25;;;-0.10;100.00
31771;BME280;18343;50.152;8.182;2024-01-16T02:59:16;96733.25;;;-0.03;100.00
31771;BME280;18343;50.152;8.182;2024-01-16T03:02:06;96728.13;;;-0.05;100.00
31771;BME280;18343;50.152;8.182;2024-01-16T03:04:51;96729.66;;;-0.12;100.00
31771;BME280;18343;50.152;8.182;2024-01-16T03:07:36;96732.28;;;-0.02;100.00
31771;BME280;18343;50.152;8.182;2024-01-16T03:10:20;96726.41;;;0.04;100.00
31771;BME280;18343;50.152;8.182;2024-01-16T03:13:05;96740.16;;;0.08;100.00
31771;BME280;18343;50.152;8.182;2024-01-16T03:15:52;96752.00;;;0.04;100.00
31771;BME280;18343;50.152;8.182;2024-01-16T03:18:37;96760.75;;;0.04;100.00
31771;BME280;18343;50.152;8.182;2024-01-16T03:21:26;96755.75;;;0.01;100.00
31771;BME280;18343;50.152;8.182;2024-01-16T03:24:14;96763.16;;;-0.03;100.00
31771;BME280;18343;50.152;8.182;2024-01-16T03:26:59;96758.53;;;0.09;100.00
31771;BME280;18343;50.152;8.182;2024-01-16T03:29:48;96752.75;;;-0.04;100.00
31771;BME280;18343;50.152;8.182;2024-01-16T03:32:43;96751.06;;;-0.05;100.00
31771;BME280;18343;50.152;8.182;2024-01-16T03:35:33;96762.56;;;0.04;100.00
31771;BME280;18343;50.152;8.182;2024-01-16T03:38:20;96761.31;;;0.08;100.00
31771;BME280;18343;50.152;8.182;2024-01-16T03:41:06;96762.84;;;0.10;100.00
31771;BME280;18343;50.152;8.182;2024-01-16T03:43:50;96766.84;;;0.14;100.00
31771;BME280;18343;50.152;8.182;2024-01-16T03:46:35;96765.88;;;0.15;100.00
31771;BME280;18343;50.152;8.182;2024-01-16T03:49:21;96759.22;;;0.11;100.00
31771;BME280;18343;50.152;8.182;2024-01-16T03:52:06;96765.34;;;0.12;100.00
31771;BME280;18343;50.152;8.182;2024-01-16T03:54:54;96768.53;;;0.15;100.00
31771;BME280;18343;50.152;8.182;2024-01-16T03:57:39;96756.44;;;0.03;100.00
31771;BME280;18343;50.152;8.182;2024-01-16T04:00:24;96757.84;;;0.07;100.00
31771;BME280;18343;50.152;8.182;2024-01-16T04:03:13;96752.00;;;0.04;100.00
31771;BME280;18343;50.152;8.182;2024-01-16T04:05:59;96757.56;;;0.00;100.00
31771;BME280;18343;50.152;8.182;2024-01-16T04:08:45;96754.50;;;0.05;100.00
31771;BME280;18343;50.152;8.182;2024-01-16T04:11:33;96758.94;;;0.05;100.00
31771;BME280;18343;50.152;8.182;2024-01-16T04:14:18;96762.69;;;0.12;100.00
31771;BME280;18343;50.152;8.182;2024-01-16T04:17:04;96763.94;;;0.08;100.00
31771;BME280;18343;50.152;8.182;2024-01-16T04:20:15;96766.44;;;0.09;100.00
31771;BME280;18343;50.152;8.182;2024-01-16T04:23:03;96762.25;;;0.16;100.00
31771;BME280;18343;50.152;8.182;2024-01-16T04:25:48;96771.16;;;0.15;100.00
31771;BME280;18343;50.152;8.182;2024-01-16T04:28:41;96771.44;;;0.12;100.00
31771;BME280;18343;50.152;8.182;2024-01-16T04:31:26;96772.28;;;0.13;100.00
31771;BME280;18343;50.152;8.182;2024-01-16T04:34:14;96764.78;;;0.08;100.00
31771;BME280;18343;50.152;8.182;2024-01-16T04:36:59;96762.16;;;0.08;100.00
31771;BME280;18343;50.152;8.182;2024-01-16T04:39:45;96766.31;;;0.11;100.00
31771;BME280;18343;50.152;8.182;2024-01-16T04:42:34;96772.03;;;0.06;100.00
31771;BME280;18343;50.152;8.182;2024-01-16T04:45:22;96773.44;;;0.00;100.00
31771;BME280;18343;50.152;8.182;2024-01-16T04:48:09;96771.25;;;-0.04;100.00
31771;BME280;18343;50.152;8.182;2024-01-16T04:50:57;96764.09;;;0.06;100.00
31771;BME280;18343;50.152;8.182;2024-01-16T04:53:47;96766.34;;;0.01;100.00
31771;BME280;18343;50.152;8.182;2024-01-16T04:56:37;96765.91;;;0.06;100.00
31771;BME280;18343;50.152;8.182;2024-01-16T04:59:22;96766.03;;;0.14;100.00
31771;BME280;18343;50.152;8.182;2024-01-16T05:02:09;96765.75;;;0.07;100.00
31771;BME280;18343;50.152;8.182;2024-01-16T05:04:58;96771.25;;;-0.04;100.00
31771;BME280;18343;50.152;8.182;2024-01-16T05:07:44;96770.78;;;0.00;100.00
31771;BME280;18343;50.152;8.182;2024-01-16T05:10:36;96772.09;;;-0.23;100.00
31771;BME280;18343;50.152;8.182;2024-01-16T05:13:25;96762.06;;;-0.10;100.00
31771;BME280;18343;50.152;8.182;2024-01-16T05:16:11;96756.22;;;-0.04;100.00
31771;BME280;18343;50.152;8.182;2024-01-16T05:18:59;96758.41;;;0.01;100.00
31771;BME280;18343;50.152;8.182;2024-01-16T05:21:44;96757.69;;;0.09;100.00
31771;BME280;18343;50.152;8.182;2024-01-16T05:24:33;96756.59;;;0.02;100.00
31771;BME280;18343;50.152;8.182;2024-01-16T05:27:28;96752.06;;;-0.06;100.00
31771;BME280;18343;50.152;8.182;2024-01-16T05:30:20;96761.94;;;-0.08;100.00
31771;BME280;18343;50.152;8.182;2024-01-16T05:33:05;96758.84;;;-0.04;100.00
31771;BME280;18343;50.152;8.182;2024-01-16T05:35:50;96759.97;;;-0.06;100.00
31771;BME280;18343;50.152;8.182;2024-01-16T05:38:34;96751.47;;;0.00;100.00
31771;BME280;18343;50.152;8.182;2024-01-16T05:41:19;96741.97;;;0.07;100.00
31771;BME280;18343;50.152;8.182;2024-01-16T05:44:04;96737.66;;;0.06;100.00
31771;BME280;18343;50.152;8.182;2024-01-16T05:46:53;96738.16;;;-0.08;100.00
31771;BME280;18343;50.152;8.182;2024-01-16T05:49:38;96726.69;;;0.01;100.00
31771;BME280;18343;50.152;8.182;2024-01-16T05:52:25;96735.84;;;0.07;100.00
31771;BME280;18343;50.152;8.182;2024-01-16T05:55:14;96734.38;;;-0.06;100.00
31771;BME280;18343;50.152;8.182;2024-01-16T05:57:59;96729.09;;;-0.06;100.00
31771;BME280;18343;50.152;8.182;2024-01-16T06:01:01;96725.34;;;-0.03;100.00
31771;BME280;18343;50.152;8.182;2024-01-16T06:03:48;96717.78;;;0.02;100.00
31771;BME280;18343;50.152;8.182;2024-01-16T06:06:35;96714.31;;;0.02;100.00
31771;BME280;18343;50.152;8.182;2024-01-16T06:09:22;96716.81;;;0.03;100.00
31771;BME280;18343;50.152;8.182;2024-01-16T06:12:10;96713.31;;;0.03;100.00
31771;BME280;18343;50.152;8.182;2024-01-16T06:14:55;96714.47;;;0.00;100.00
31771;BME280;18343;50.152;8.182;2024-01-16T06:17:41;96712.97;;;-0.03;100.00
31771;BME280;18343;50.152;8.182;2024-01-16T06:20:27;96713.38;;;-0.07;100.00
31771;BME280;18343;50.152;8.182;2024-01-16T06:23:16;96712.44;;;-0.16;100.00
31771;BME280;18343;50.152;8.182;2024-01-16T06:26:07;96718.41;;;-0.14;100.00
31771;BME280;18343;50.152;8.182;2024-01-16T06:28:56;96716.88;;;-0.16;100.00
31771;BME280;18343;50.152;8.182;2024-01-16T06:31:49;96718.97;;;-0.20;100.00
31771;BME280;18343;50.152;8.182;2024-01-16T06:34:34;96717.44;;;-0.22;100.00
31771;BME280;18343;50.152;8.182;2024-01-16T06:37:21;96721.06;;;-0.23;100.00
31771;BME280;18343;50.152;8.182;2024-01-16T06:40:14;96707.56;;;-0.20;100.00
31771;BME280;18343;50.152;8.182;2024-01-16T06:43:05;96717.84;;;-0.17;100.00
31771;BME280;18343;50.152;8.182;2024-01-16T06:45:59;96715.63;;;-0.12;100.00
31771;BME280;18343;50.152;8.182;2024-01-16T06:48:44;96718.41;;;-0.14;100.00
31771;BME280;18343;50.152;8.182;2024-01-16T06:51:33;96714.94;;;-0.14;100.00
31771;BME280;18343;50.152;8.182;2024-01-16T06:54:21;96720.47;;;-0.08;100.00
31771;BME280;18343;50.152;8.182;2024-01-16T06:57:06;96719.34;;;-0.05;100.00
31771;BME280;18343;50.152;8.182;2024-01-16T06:59:53;96717.25;;;-0.02;100.00
31771;BME280;18343;50.152;8.182;2024-01-16T07:02:40;96723.38;;;-0.01;100.00
31771;BME280;18343;50.152;8.182;2024-01-16T07:05:29;96724.22;;;-0.01;100.00
31771;BME280;18343;50.152;8.182;2024-01-16T07:08:13;96719.75;;;0.00;100.00
31771;BME280;18343;50.152;8.182;2024-01-16T07:11:08;96723.06;;;0.02;100.00
31771;BME280;18343;50.152;8.182;2024-01-16T07:13:53;96720.28;;;0.04;100.00
31771;BME280;18343;50.152;8.182;2024-01-16T07:16:38;96733.13;;;-0.02;100.00
31771;BME280;18343;50.152;8.182;2024-01-16T07:19:23;96732.16;;;-0.10;100.00
31771;BME280;18343;50.152;8.182;2024-01-16T07:22:08;96724.25;;;-0.10;100.00
31771;BME280;18343;50.152;8.182;2024-01-16T07:25:02;96730.38;;;-0.19;100.00
31771;BME280;18343;50.152;8.182;2024-01-16T07:27:48;96725.72;;;-0.35;100.00
31771;BME280;18343;50.152;8.182;2024-01-16T07:30:33;96725.66;;;-0.25;100.00
31771;BME280;18343;50.152;8.182;2024-01-16T07:33:20;96739.56;;;-0.23;100.00
31771;BME280;18343;50.152;8.182;2024-01-16T07:36:10;96737.38;;;-0.28;100.00
31771;BME280;18343;50.152;8.182;2024-01-16T07:38:55;96740.56;;;-0.34;100.00
31771;BME280;18343;50.152;8.182;2024-01-16T07:41:41;96744.75;;;-0.31;100.00
31771;BME280;18343;50.152;8.182;2024-01-16T07:44:27;96739.31;;;-0.30;100.00
31771;BME280;18343;50.152;8.182;2024-01-16T07:47:13;96744.28;;;-0.27;100.00
31771;BME280;18343;50.152;8.182;2024-01-16T07:49:58;96748.47;;;-0.24;100.00
31771;BME280;18343;50.152;8.182;2024-01-16T07:52:45;96731.50;;;-0.22;100.00
31771;BME280;18343;50.152;8.182;2024-01-16T07:55:46;96733.44;;;-0.24;100.00
31771;BME280;18343;50.152;8.182;2024-01-16T07:58:34;96743.88;;;-0.22;100.00
31771;BME280;18343;50.152;8.182;2024-01-16T08:01:31;96745.13;;;-0.26;100.00
31771;BME280;18343;50.152;8.182;2024-01-16T08:04:16;96745.13;;;-0.26;100.00
31771;BME280;18343;50.152;8.182;2024-01-16T08:07:04;96750.97;;;-0.23;100.00
31771;BME280;18343;50.152;8.182;2024-01-16T08:09:49;96745.69;;;-0.23;100.00
31771;BME280;18343;50.152;8.182;2024-01-16T08:12:35;96748.88;;;-0.19;100.00
31771;BME280;18343;50.152;8.182;2024-01-16T08:15:20;96755.69;;;-0.26;100.00
31771;BME280;18343;50.152;8.182;2024-01-16T08:18:07;96759.63;;;-0.30;100.00
31771;BME280;18343;50.152;8.182;2024-01-16T08:20:52;96763.25;;;-0.31;100.00
31771;BME280;18343;50.152;8.182;2024-01-16T08:23:37;96767.28;;;-0.37;100.00
31771;BME280;18343;50.152;8.182;2024-01-16T08:26:31;96765.75;;;-0.30;100.00
31771;BME280;18343;50.152;8.182;2024-01-16T08:29:19;96763.34;;;-0.23;100.00
31771;BME280;18343;50.152;8.182;2024-01-16T08:32:07;96762.50;;;-0.14;100.00
31771;BME280;18343;50.152;8.182;2024-01-16T08:35:01;96766.25;;;-0.07;100.00
31771;BME280;18343;50.152;8.182;2024-01-16T08:37:48;96777.34;;;-0.04;100.00
31771;BME280;18343;50.152;8.182;2024-01-16T08:40:35;96784.69;;;0.03;100.00
31771;BME280;18343;50.152;8.182;2024-01-16T08:43:20;96772.31;;;0.03;100.00
31771;BME280;18343;50.152;8.182;2024-01-16T08:46:05;96782.47;;;0.08;100.00
31771;BME280;18343;50.152;8.182;2024-01-16T08:48:50;96782.31;;;0.09;100.00
31771;BME280;18343;50.152;8.182;2024-01-16T08:51:39;96787.38;;;-0.07;100.00
31771;BME280;18343;50.152;8.182;2024-01-16T08:54:27;96776.25;;;-0.01;100.00
31771;BME280;18343;50.152;8.182;2024-01-16T08:57:11;96782.09;;;-0.07;100.00
31771;BME280;18343;50.152;8.182;2024-01-16T09:00:00;96779.53;;;0.01;100.00
31771;BME280;18343;50.152;8.182;2024-01-16T09:02:45;96772.31;;;0.03;100.00
31771;BME280;18343;50.152;8.182;2024-01-16T09:05:29;96763.69;;;0.01;100.00
31771;BME280;18343;50.152;8.182;2024-01-16T09:08:18;96769.53;;;0.05;100.00
31771;BME280;18343;50.152;8.182;2024-01-16T09:11:07;96766.03;;;0.14;100.00
31771;BME280;18343;50.152;8.182;2024-01-16T09:13:55;96771.44;;;0.12;100.00
31771;BME280;18343;50.152;8.182;2024-01-16T09:16:40;96761.97;;;0.19;100.00
31771;BME280;18343;50.152;8.182;2024-01-16T09:19:26;96769.75;;;0.21;100.00
31771;BME280;18343;50.152;8.182;2024-01-16T09:22:13;96773.94;;;0.23;100.00
31771;BME280;18343;50.152;8.182;2024-01-16T09:25:04;96773.31;;;0.29;100.00
31771;BME280;18343;50.152;8.182;2024-01-16T09:27:51;96780.56;;;0.27;100.00
31771;BME280;18343;50.152;8.182;2024-01-16T09:30:36;96786.25;;;0.32;100.00
31771;BME280;18343;50.152;8.182;2024-01-16T09:33:24;96793.47;;;0.40;100.00
31771;BME280;18343;50.152;8.182;2024-01-16T09:36:10;96793.63;;;0.39;100.00
31771;BME280;18343;50.152;8.182;2024-01-16T09:38:55;96806.00;;;0.38;100.00
31771;BME280;18343;50.152;8.182;2024-01-16T09:41:41;96796.56;;;0.36;100.00
31771;BME280;18343;50.152;8.182;2024-01-16T09:44:29;96801.16;;;0.33;100.00
31771;BME280;18343;50.152;8.182;2024-01-16T09:47:16;96795.41;;;0.48;100.00
31771;BME280;18343;50.152;8.182;2024-01-16T09:50:05;96807.03;;;0.55;100.00
31771;BME280;18343;50.152;8.182;2024-01-16T09:52:50;96811.16;;;0.40;100.00
31771;BME280;18343;50.152;8.182;2024-01-16T09:55:35;96808.50;;;0.40;100.00
31771;BME280;18343;50.152;8.182;2024-01-16T09:58:24;96801.81;;;0.45;100.00
31771;BME280;18343;50.152;8.182;2024-01-16T10:01:11;96801.44;;;0.30;100.00
31771;BME280;18343;50.152;8.182;2024-01-16T10:03:56;96799.06;;;0.27;100.00
31771;BME280;18343;50.152;8.182;2024-01-16T10:06:42;96797.81;;;0.31;100.00
31771;BME280;18343;50.152;8.182;2024-01-16T10:09:30;96798.66;;;0.32;100.00
31771;BME280;18343;50.152;8.182;2024-01-16T10:12:15;96799.69;;;0.21;100.00
31771;BME280;18343;50.152;8.182;2024-01-16T10:15:06;96804.22;;;0.29;100.00
31771;BME280;18343;50.152;8.182;2024-01-16T10:17:52;96795.84;;;0.43;100.00
31771;BME280;18343;50.152;8.182;2024-01-16T10:20:38;96789.03;;;0.68;100.00
31771;BME280;18343;50.152;8.182;2024-01-16T10:23:28;96790.66;;;0.79;100.00
31771;BME280;18343;50.152;8.182;2024-01-16T10:26:13;96783.22;;;0.82;100.00
31771;BME280;18343;50.152;8.182;2024-01-16T10:29:04;96780.56;;;0.82;100.00
31771;BME280;18343;50.152;8.182;2024-01-16T10:31:52;96783.72;;;0.95;100.00
31771;BME280;18343;50.152;8.182;2024-01-16T10:34:37;96776.06;;;0.92;100.00
31771;BME280;18343;50.152;8.182;2024-01-16T10:37:22;96774.84;;;0.59;100.00
31771;BME280;18343;50.152;8.182;2024-01-16T10:40:12;96780.28;;;0.85;100.00
31771;BME280;18343;50.152;8.182;2024-01-16T10:43:09;96778.13;;;0.98;100.00
31771;BME280;18343;50.152;8.182;2024-01-16T10:46:08;96776.56;;;1.06;100.00
31771;BME280;18343;50.152;8.182;2024-01-16T10:49:02;96772.38;;;1.21;100.00
31771;BME280;18343;50.152;8.182;2024-01-16T10:51:50;96766.44;;;1.37;100.00
31771;BME280;18343;50.152;8.182;2024-01-16T10:54:41;96769.56;;;1.40;100.00
31771;BME280;18343;50.152;8.182;2024-01-16T10:57:30;96772.09;;;1.24;100.00
31771;BME280;18343;50.152;8.182;2024-01-16T11:00:22;96770.47;;;1.13;100.00
31771;BME280;18343;50.152;8.182;2024-01-16T11:03:16;96766.25;;;1.38;100.00
31771;BME280;18343;50.152;8.182;2024-01-16T11:06:07;96756.19;;;1.59;100.00
31771;BME280;18343;50.152;8.182;2024-01-16T11:08:53;96751.81;;;1.76;100.00
31771;BME280;18343;50.152;8.182;2024-01-16T11:11:39;96751.28;;;1.90;100.00
31771;BME280;18343;50.152;8.182;2024-01-16T11:14:27;96740.91;;;2.05;100.00
31771;BME280;18343;50.152;8.182;2024-01-16T11:17:15;96735.84;;;2.20;100.00
31771;BME280;18343;50.152;8.182;2024-01-16T11:20:07;96724.66;;;2.34;100.00
31771;BME280;18343;50.152;8.182;2024-01-16T11:22:54;96724.28;;;2.29;100.00
31771;BME280;18343;50.152;8.182;2024-01-16T11:25:40;96726.66;;;2.40;100.00
31771;BME280;18343;50.152;8.182;2024-01-16T11:28:28;96722.88;;;2.43;100.00
31771;BME280;18343;50.152;8.182;2024-01-16T11:31:28;96713.25;;;2.42;100.00
31771;BME280;18343;50.152;8.182;2024-01-16T11:34:13;96699.81;;;2.43;100.00
31771;BME280;18343;50.152;8.182;2024-01-16T11:37:01;96699.53;;;2.62;100.00
31771;BME280;18343;50.152;8.182;2024-01-16T11:39:54;96707.31;;;2.56;100.00
31771;BME280;18343;50.152;8.182;2024-01-16T11:42:41;96689.38;;;2.42;100.00
31771;BME280;18343;50.152;8.182;2024-01-16T11:45:57;96695.19;;;2.45;100.00
31771;BME280;18343;50.152;8.182;2024-01-16T11:49:01;96693.84;;;2.07;100.00
31771;BME280;18343;50.152;8.182;2024-01-16T11:51:53;96684.63;;;2.19;100.00
31771;BME280;18343;50.152;8.182;2024-01-16T11:54:39;96676.94;;;2.08;100.00
31771;BME280;18343;50.152;8.182;2024-01-16T11:57:45;96675.28;;;2.07;100.00
31771;BME280;18343;50.152;8.182;2024-01-16T12:00:41;96668.84;;;2.10;100.00
31771;BME280;18343;50.152;8.182;2024-01-16T12:03:27;96666.97;;;2.02;100.00
31771;BME280;18343;50.152;8.182;2024-01-16T12:06:17;96671.34;;;2.11;100.00
31771;BME280;18343;50.152;8.182;2024-01-16T12:09:11;96661.56;;;2.20;100.00
31771;BME280;18343;50.152;8.182;2024-01-16T12:12:00;96662.38;;;2.12;100.00
31771;BME280;18343;50.152;8.182;2024-01-16T12:14:53;96668.63;;;2.03;100.00
31771;BME280;18343;50.152;8.182;2024-01-16T12:17:42;96672.50;;;1.83;100.00
31771;BME280;18343;50.152;8.182;2024-01-16T12:20:38;96671.06;;;1.88;100.00
31771;BME280;18343;50.152;8.182;2024-01-16T12:23:26;96663.28;;;1.95;100.00
31771;BME280;18343;50.152;8.182;2024-01-16T12:26:20;96666.63;;;1.97;100.00
31771;BME280;18343;50.152;8.182;2024-01-16T12:29:05;96660.75;;;2.19;100.00
31771;BME280;18343;50.152;8.182;2024-01-16T12:32:03;96657.69;;;2.40;100.00
31771;BME280;18343;50.152;8.182;2024-01-16T12:34:49;96649.78;;;2.64;100.00
31771;BME280;18343;50.152;8.182;2024-01-16T12:37:35;96643.53;;;2.90;100.00
31771;BME280;18343;50.152;8.182;2024-01-16T12:40:21;96632.38;;;3.02;100.00
31771;BME280;18343;50.152;8.182;2024-01-16T12:43:08;96632.56;;;3.01;100.00
31771;BME280;18343;50.152;8.182;2024-01-16T12:45:58;96633.06;;;2.88;100.00
31771;BME280;18343;50.152;8.182;2024-01-16T12:48:47;96644.31;;;2.74;100.00
31771;BME280;18343;50.152;8.182;2024-01-16T12:51:35;96635.00;;;2.54;100.00
31771;BME280;18343;50.152;8.182;2024-01-16T12:54:34;96630.34;;;2.56;100.00
31771;BME280;18343;50.152;8.182;2024-01-16T12:57:20;96614.78;;;2.61;100.00
31771;BME280;18343;50.152;8.182;2024-01-16T13:00:23;96609.44;;;2.53;100.00
31771;BME280;18343;50.152;8.182;2024-01-16T13:03:15;96610.59;;;2.50;100.00
31771;BME280;18343;50.152;8.182;2024-01-16T13:06:02;96605.28;;;2.50;100.00
31771;BME280;18343;50.152;8.182;2024-01-16T13:08:47;96604.47;;;2.42;100.00
31771;BME280;18343;50.152;8.182;2024-01-16T13:11:54;96608.09;;;2.41;100.00
31771;BME280;18343;50.152;8.182;2024-01-16T13:14:39;96602.28;;;2.37;100.00
31771;BME280;18343;50.152;8.182;2024-01-16T13:17:27;96595.34;;;2.44;100.00
31771;BME280;18343;50.152;8.182;2024-01-16T13:20:14;96597.16;;;2.44;100.00
31771;BME280;18343;50.152;8.182;2024-01-16T13:23:05;96597.00;;;2.45;100.00
31771;BME280;18343;50.152;8.182;2024-01-16T13:25:55;96597.66;;;2.47;100.00
31771;BME280;18343;50.152;8.182;2024-01-16T13:28:40;96593.53;;;2.53;100.00
31771;BME280;18343;50.152;8.182;2024-01-16T13:31:28;96587.06;;;2.55;100.00
31771;BME280;18343;50.152;8.182;2024-01-16T13:34:13;96585.41;;;2.54;100.00
31771;BME280;18343;50.152;8.182;2024-01-16T13:37:10;96593.88;;;2.58;100.00
31771;BME280;18343;50.152;8.182;2024-01-16T13:39:56;96592.88;;;2.59;100.00
31771;BME280;18343;50.152;8.182;2024-01-16T13:42:41;96587.88;;;2.56;100.00
31771;BME280;18343;50.152;8.182;2024-01-16T13:45:27;96586.03;;;2.48;100.00
31771;BME280;18343;50.152;8.182;2024-01-16T13:48:12;96584.41;;;2.55;100.00
31771;BME280;18343;50.152;8.182;2024-01-16T13:51:01;96576.63;;;2.70;100.00
31771;BME280;18343;50.152;8.182;2024-01-16T13:53:46;96568.81;;;2.77;100.00
31771;BME280;18343;50.152;8.182;2024-01-16T13:56:49;96572.16;;;2.95;100.00
31771;BME280;18343;50.152;8.182;2024-01-16T13:59:48;96561.19;;;3.14;100.00
31771;BME280;18343;50.152;8.182;2024-01-16T14:02:47;96560.69;;;3.27;100.00
31771;BME280;18343;50.152;8.182;2024-01-16T14:05:33;96574.63;;;3.04;100.00
31771;BME280;18343;50.152;8.182;2024-01-16T14:08:18;96568.28;;;3.38;100.00
31771;BME280;18343;50.152;8.182;2024-01-16T14:11:03;96571.63;;;3.24;100.00
31771;BME280;18343;50.152;8.182;2024-01-16T14:13:57;96578.63;;;3.17;100.00
31771;BME280;18343;50.152;8.182;2024-01-16T14:16:45;96573.31;;;2.92;100.00
31771;BME280;18343;50.152;8.182;2024-01-16T14:19:52;96581.13;;;2.69;100.00
31771;BME280;18343;50.152;8.182;2024-01-16T14:22:37;96590.88;;;2.53;100.00
31771;BME280;18343;50.152;8.182;2024-01-16T14:25:57;96589.03;;;2.37;100.00
31771;BME280;18343;50.152;8.182;2024-01-16T14:28:50;96588.88;;;2.38;100.00
31771;BME280;18343;50.152;8.182;2024-01-16T14:31:36;96581.41;;;2.42;100.00
31771;BME280;18343;50.152;8.182;2024-01-16T14:34:24;96590.03;;;2.44;100.00
31771;BME280;18343;50.152;8.182;2024-01-16T14:37:19;96592.03;;;2.42;100.00
31771;BME280;18343;50.152;8.182;2024-01-16T14:40:06;96592.19;;;2.41;100.00
31771;BME280;18343;50.152;8.182;2024-01-16T14:42:52;96599.47;;;2.38;100.00
31771;BME280;18343;50.152;8.182;2024-01-16T14:45:44;96594.16;;;2.30;100.00
31771;BME280;18343;50.152;8.182;2024-01-16T14:48:43;96586.34;;;2.29;100.00